Time;durP1;ratioP1;P1;durP2;ratioP2;P2;SDS_P1;SDS_P2;PMS_P1;PMS_P2;Temp;Humidity;BMP_temperature;BMP_pressure;BME280_temperature;BME280_humidity;BME280_pressure;Samples;Min_cycle;Max_cycle;Signal;HPM_P1;HPM_P2
2023/12/08 00:02:21;;;;;;;;;;;6.70;99.90;;;;;;5020237;28;19926;-55
2023/12/08 00:04:48;;;;;;;;;;;6.70;99.90;;;;;;5036037;28;20382;-56
2023/12/08 00:07:17;;;;;;;;;;;6.70;99.90;;;;;;5028587;28;19925;-56
2023/12/08 00:09:44;;;;;;;;;;;6.70;99.90;;;;;;5044700;28;19929;-61
2023/12/08 00:12:12;;;;;;;;;;;6.70;99.90;;;;;;5048248;28;19931;-56
2023/12/08 00:14:40;;;;;;;;;;;6.60;99.90;;;;;;5035351;28;19931;-56
2023/12/08 00:17:08;;;;;;;;;;;6.60;99.90;;;;;;5038014;28;19936;-57
2023/12/08 00:19:36;;;;;;;;;;;6.50;99.90;;;;;;5023870;28;19925;-57
2023/12/08 00:22:05;;;;;;;;;;;6.50;99.90;;;;;;5026929;28;19925;-57
2023/12/08 00:24:33;;;;;;;;;;;6.50;99.90;;;;;;5027947;28;19929;-57
2023/12/08 00:27:01;;;;;;;;;;;6.40;99.90;;;;;;5028487;28;19925;-57
2023/12/08 00:29:29;;;;;;;;;;;6.40;99.90;;;;;;5027752;28;20420;-57
2023/12/08 00:31:57;;;;;;;;;;;6.40;99.90;;;;;;5027419;28;19964;-57
2023/12/08 00:34:24;;;;;;;;;;;6.30;99.90;;;;;;5024640;28;19933;-57
2023/12/08 00:36:52;;;;;;;;;;;6.30;99.90;;;;;;5026454;28;19940;-58
2023/12/08 00:39:22;;;;;;;;;;;6.30;99.90;;;;;;5041797;28;19925;-58
2023/12/08 00:41:49;;;;;;;;;;;6.40;99.90;;;;;;5050898;28;19928;-58
2023/12/08 00:44:17;;;;;;;;;;;6.30;99.90;;;;;;5035707;28;20273;-57
2023/12/08 00:46:45;;;;;;;;;;;6.30;99.90;;;;;;5028122;28;19926;-57
2023/12/08 00:49:13;;;;;;;;;;;6.30;99.90;;;;;;5039408;28;19935;-57
2023/12/08 00:51:40;;;;;;;;;;;6.20;99.90;;;;;;5040634;28;19936;-57
2023/12/08 00:54:08;;;;;;;;;;;6.20;99.90;;;;;;5039618;28;19925;-57
2023/12/08 00:56:36;;;;;;;;;;;6.20;99.90;;;;;;5031651;28;19925;-57
2023/12/08 00:59:04;;;;;;;;;;;6.20;99.90;;;;;;5030837;28;19925;-57
2023/12/08 01:01:31;;;;;;;;;;;6.20;99.90;;;;;;5032669;28;20424;-56
2023/12/08 01:03:59;;;;;;;;;;;6.20;99.90;;;;;;5026073;28;19933;-57
2023/12/08 01:06:27;;;;;;;;;;;6.10;99.90;;;;;;5029341;28;19936;-57
2023/12/08 01:08:55;;;;;;;;;;;6.20;99.90;;;;;;5030579;28;19933;-56
2023/12/08 01:11:23;;;;;;;;;;;6.10;99.90;;;;;;5030128;28;20000;-57
2023/12/08 01:13:50;;;;;;;;;;;6.10;99.90;;;;;;5030995;28;19925;-57
2023/12/08 01:16:19;;;;;;;;;;;6.10;99.90;;;;;;5031360;28;19932;-57
2023/12/08 01:18:47;;;;;;;;;;;6.10;99.90;;;;;;5031810;28;19932;-57
2023/12/08 01:21:18;;;;;;;;;;;6.10;99.90;;;;;;5037660;28;19925;-57
2023/12/08 01:23:46;;;;;;;;;;;6.10;99.90;;;;;;5012813;28;19933;-57
2023/12/08 01:26:14;;;;;;;;;;;6.00;99.90;;;;;;5031300;28;19925;-57
2023/12/08 01:28:42;;;;;;;;;;;6.00;99.90;;;;;;5038408;28;20408;-57
2023/12/08 01:31:10;;;;;;;;;;;6.00;99.90;;;;;;5050890;28;19932;-58
2023/12/08 01:33:37;;;;;;;;;;;6.10;99.90;;;;;;5035272;28;19936;-57
2023/12/08 01:36:06;;;;;;;;;;;6.00;99.90;;;;;;5031478;28;19932;-57
2023/12/08 01:38:54;;;;;;;;;;;6.00;99.90;;;;;;5039773;28;20282;-57
2023/12/08 01:41:21;;;;;;;;;;;6.00;99.90;;;;;;5050939;28;19925;-57
2023/12/08 01:43:49;;;;;;;;;;;6.00;99.90;;;;;;5016315;28;19933;-57
2023/12/08 01:46:18;;;;;;;;;;;6.00;99.90;;;;;;5030773;28;19925;-57
2023/12/08 01:48:47;;;;;;;;;;;6.00;99.90;;;;;;5025621;28;19936;-57
2023/12/08 01:51:16;;;;;;;;;;;6.00;99.90;;;;;;5030105;28;19971;-57
2023/12/08 01:53:44;;;;;;;;;;;6.00;99.90;;;;;;5041111;28;19924;-57
2023/12/08 01:56:12;;;;;;;;;;;5.90;99.90;;;;;;5035946;28;19929;-57
2023/12/08 01:58:40;;;;;;;;;;;5.90;99.90;;;;;;5030532;28;19928;-57
2023/12/08 02:01:10;;;;;;;;;;;5.90;99.90;;;;;;5030729;28;20369;-58
2023/12/08 02:03:39;;;;;;;;;;;5.90;99.90;;;;;;5038839;28;19925;-59
2023/12/08 02:06:07;;;;;;;;;;;5.90;99.90;;;;;;5030506;28;19925;-58
2023/12/08 02:08:35;;;;;;;;;;;5.90;99.90;;;;;;5036601;28;19925;-57
2023/12/08 02:11:03;;;;;;;;;;;5.90;99.90;;;;;;5050155;28;19924;-57
2023/12/08 02:13:31;;;;;;;;;;;4.90;99.90;;;;;;5039788;28;19929;-57
2023/12/08 02:16:06;;;;;;;;;;;5.80;99.90;;;;;;5030193;28;19936;-57
2023/12/08 02:18:34;;;;;;;;;;;5.90;99.90;;;;;;5027467;28;19925;-57
2023/12/08 02:21:03;;;;;;;;;;;5.80;99.90;;;;;;5029631;28;19932;-57
2023/12/08 02:23:30;;;;;;;;;;;5.80;99.90;;;;;;5029661;28;19925;-57
2023/12/08 02:25:58;;;;;;;;;;;5.80;99.90;;;;;;5030434;28;19936;-57
2023/12/08 02:28:26;;;;;;;;;;;5.80;99.90;;;;;;5034983;28;19925;-57
2023/12/08 02:30:54;;;;;;;;;;;5.90;99.90;;;;;;5036651;28;19929;-57
2023/12/08 02:33:32;;;;;;;;;;;5.90;99.90;;;;;;5026733;28;19958;-57
2023/12/08 02:36:01;;;;;;;;;;;5.90;99.90;;;;;;5015103;28;19936;-57
2023/12/08 02:38:29;;;;;;;;;;;5.80;99.90;;;;;;5031105;28;19925;-57
2023/12/08 02:40:57;;;;;;;;;;;5.80;99.90;;;;;;5032934;28;20294;-57
2023/12/08 02:43:25;;;;;;;;;;;5.80;99.90;;;;;;5032951;28;20392;-58
2023/12/08 02:45:52;;;;;;;;;;;5.80;99.90;;;;;;5031140;28;19929;-57
2023/12/08 02:48:20;;;;;;;;;;;5.70;99.90;;;;;;5032817;28;19933;-60
2023/12/08 02:50:48;;;;;;;;;;;5.70;99.90;;;;;;5032933;28;20293;-57
2023/12/08 02:53:16;;;;;;;;;;;5.70;99.90;;;;;;5032554;28;19933;-57
2023/12/08 02:55:44;;;;;;;;;;;5.70;99.90;;;;;;5032813;28;19932;-58
2023/12/08 02:58:12;;;;;;;;;;;5.70;99.90;;;;;;5032165;28;19925;-57
2023/12/08 03:00:40;;;;;;;;;;;5.70;99.90;;;;;;5031435;28;19929;-58
2023/12/08 03:03:07;;;;;;;;;;;5.70;99.90;;;;;;5047463;28;19925;-58
2023/12/08 03:05:35;;;;;;;;;;;5.70;99.90;;;;;;5052201;28;19925;-57
2023/12/08 03:08:03;;;;;;;;;;;5.80;99.90;;;;;;5031989;28;19925;-56
2023/12/08 03:10:31;;;;;;;;;;;5.80;99.90;;;;;;5032836;28;19925;-56
2023/12/08 03:12:59;;;;;;;;;;;5.80;99.90;;;;;;5031536;28;19925;-56
2023/12/08 03:15:27;;;;;;;;;;;5.80;99.90;;;;;;5032183;28;19925;-56
2023/12/08 03:17:55;;;;;;;;;;;5.80;99.90;;;;;;5031771;28;19933;-57
2023/12/08 03:20:23;;;;;;;;;;;5.80;99.90;;;;;;5031260;28;20398;-56
2023/12/08 03:22:50;;;;;;;;;;;5.80;99.90;;;;;;5031068;28;20515;-56
2023/12/08 03:25:18;;;;;;;;;;;5.80;99.90;;;;;;5032181;28;20419;-56
2023/12/08 03:27:45;;;;;;;;;;;5.70;99.90;;;;;;5032331;28;19932;-56
2023/12/08 03:30:14;;;;;;;;;;;5.70;99.90;;;;;;5030899;28;19933;-57
2023/12/08 03:32:42;;;;;;;;;;;5.70;99.90;;;;;;5044212;28;19932;-56
2023/12/08 03:35:10;;;;;;;;;;;5.70;99.90;;;;;;5036391;28;19929;-56
2023/12/08 03:37:37;;;;;;;;;;;5.70;99.90;;;;;;5031537;28;19925;-56
2023/12/08 03:40:05;;;;;;;;;;;5.70;99.90;;;;;;5032157;28;20285;-56
2023/12/08 03:42:36;;;;;;;;;;;5.70;99.90;;;;;;5031875;28;19932;-56
2023/12/08 03:45:05;;;;;;;;;;;5.70;99.90;;;;;;5031954;28;19925;-56
2023/12/08 03:47:33;;;;;;;;;;;5.70;99.90;;;;;;5032097;28;20000;-56
2023/12/08 03:50:01;;;;;;;;;;;5.70;99.90;;;;;;5031985;28;19925;-56
2023/12/08 03:52:29;;;;;;;;;;;5.80;99.90;;;;;;5030696;28;19932;-56
2023/12/08 03:54:57;;;;;;;;;;;5.80;99.90;;;;;;5031650;28;19925;-56
2023/12/08 03:57:25;;;;;;;;;;;5.80;99.90;;;;;;5030524;28;19932;-56
2023/12/08 03:59:53;;;;;;;;;;;5.80;99.90;;;;;;5031730;28;20300;-56
2023/12/08 04:02:20;;;;;;;;;;;5.80;99.90;;;;;;5040440;28;19932;-56
2023/12/08 04:04:48;;;;;;;;;;;5.80;99.90;;;;;;5051776;28;19947;-61
2023/12/08 04:07:16;;;;;;;;;;;5.80;99.90;;;;;;5031263;28;19925;-56
2023/12/08 04:09:43;;;;;;;;;;;5.70;99.90;;;;;;5030418;28;19948;-56
2023/12/08 04:12:12;;;;;;;;;;;5.70;99.90;;;;;;5031758;28;20588;-56
2023/12/08 04:14:40;;;;;;;;;;;5.60;99.90;;;;;;5033625;28;19932;-56
2023/12/08 04:17:10;;;;;;;;;;;5.60;99.90;;;;;;5035327;28;19925;-56
2023/12/08 04:19:38;;;;;;;;;;;5.60;99.90;;;;;;5035734;28;19925;-55
2023/12/08 04:22:06;;;;;;;;;;;5.50;99.90;;;;;;5035697;28;19933;-56
2023/12/08 04:24:33;;;;;;;;;;;5.50;99.90;;;;;;5035487;28;19925;-56
2023/12/08 04:27:01;;;;;;;;;;;5.50;99.90;;;;;;5035703;28;19932;-56
2023/12/08 04:29:29;;;;;;;;;;;5.50;99.90;;;;;;5034846;28;19925;-56
2023/12/08 04:31:57;;;;;;;;;;;5.50;99.90;;;;;;5041137;28;20499;-56
2023/12/08 04:34:24;;;;;;;;;;;5.50;99.90;;;;;;5038325;28;19926;-57
2023/12/08 04:36:52;;;;;;;;;;;5.50;99.90;;;;;;5035440;28;19936;-56
2023/12/08 04:39:20;;;;;;;;;;;5.50;99.90;;;;;;5035244;28;20385;-57
2023/12/08 04:41:48;;;;;;;;;;;5.40;99.90;;;;;;5033829;28;20397;-57
2023/12/08 04:44:16;;;;;;;;;;;5.40;99.90;;;;;;5034320;28;19925;-56
2023/12/08 04:46:44;;;;;;;;;;;5.40;99.90;;;;;;5034809;28;20297;-57
2023/12/08 04:49:12;;;;;;;;;;;5.30;99.90;;;;;;5035168;28;19948;-57
2023/12/08 04:51:41;;;;;;;;;;;5.30;99.90;;;;;;5035172;28;19925;-57
2023/12/08 04:54:09;;;;;;;;;;;5.30;99.90;;;;;;5033746;28;19932;-57
2023/12/08 04:56:36;;;;;;;;;;;5.20;99.90;;;;;;5035072;28;19932;-57
2023/12/08 04:59:04;;;;;;;;;;;5.20;99.90;;;;;;5034855;28;20428;-56
2023/12/08 05:01:32;;;;;;;;;;;5.20;99.90;;;;;;5036709;28;19926;-56
2023/12/08 05:04:00;;;;;;;;;;;5.20;99.90;;;;;;5054979;28;20373;-56
2023/12/08 05:06:28;;;;;;;;;;;5.20;99.90;;;;;;5055030;28;19932;-56
2023/12/08 05:08:56;;;;;;;;;;;5.20;99.90;;;;;;5043542;28;19925;-56
2023/12/08 05:11:24;;;;;;;;;;;5.20;99.90;;;;;;5034963;28;19933;-56
2023/12/08 05:13:51;;;;;;;;;;;5.20;99.90;;;;;;5033197;28;19936;-56
2023/12/08 05:16:19;;;;;;;;;;;5.20;99.90;;;;;;5034221;28;19933;-56
2023/12/08 05:18:47;;;;;;;;;;;5.20;99.90;;;;;;5033685;28;19933;-56
2023/12/08 05:21:14;;;;;;;;;;;5.20;99.90;;;;;;5035164;28;19926;-56
2023/12/08 05:23:42;;;;;;;;;;;5.20;99.90;;;;;;5034728;28;19932;-56
2023/12/08 05:26:10;;;;;;;;;;;5.20;99.90;;;;;;5034080;28;20380;-57
2023/12/08 05:28:38;;;;;;;;;;;5.20;99.90;;;;;;5034680;28;19925;-56
2023/12/08 05:31:05;;;;;;;;;;;5.10;99.90;;;;;;5034448;28;19936;-56
2023/12/08 05:33:33;;;;;;;;;;;5.10;99.90;;;;;;5039514;28;19925;-56
2023/12/08 05:36:01;;;;;;;;;;;5.00;99.90;;;;;;5034822;28;19929;-56
2023/12/08 05:38:32;;;;;;;;;;;5.00;99.90;;;;;;5034416;28;19933;-56
2023/12/08 05:41:01;;;;;;;;;;;5.00;99.90;;;;;;5032928;28;19925;-56
2023/12/08 05:43:28;;;;;;;;;;;5.00;99.90;;;;;;5034641;28;19926;-56
2023/12/08 05:45:56;;;;;;;;;;;5.00;99.90;;;;;;5034454;28;20369;-56
2023/12/08 05:48:24;;;;;;;;;;;5.00;99.90;;;;;;5019865;28;19948;-56
2023/12/08 05:50:52;;;;;;;;;;;5.00;99.90;;;;;;5025143;28;19929;-57
2023/12/08 05:53:22;;;;;;;;;;;5.00;99.90;;;;;;5030477;28;19925;-56
2023/12/08 05:55:50;;;;;;;;;;;5.00;99.90;;;;;;5029394;28;20267;-57
2023/12/08 05:58:18;;;;;;;;;;;5.10;99.90;;;;;;5030251;28;19947;-60
2023/12/08 06:00:46;;;;;;;;;;;5.10;99.90;;;;;;5009041;28;19926;-56
2023/12/08 06:03:14;;;;;;;;;;;5.10;99.90;;;;;;5023527;28;20404;-56
2023/12/08 06:05:42;;;;;;;;;;;5.10;99.90;;;;;;5006532;28;19941;-57
2023/12/08 06:08:09;;;;;;;;;;;5.10;99.90;;;;;;5028483;28;19940;-56
2023/12/08 06:10:38;;;;;;;;;;;5.20;99.90;;;;;;5047440;28;20480;-56
2023/12/08 06:13:05;;;;;;;;;;;5.20;99.90;;;;;;5042822;28;19925;-57
2023/12/08 06:15:33;;;;;;;;;;;5.30;99.90;;;;;;5048959;28;19925;-56
2023/12/08 06:18:01;;;;;;;;;;;5.30;99.90;;;;;;5036140;28;19925;-57
2023/12/08 06:20:30;;;;;;;;;;;5.40;99.90;;;;;;5010357;28;19933;-57
2023/12/08 06:22:58;;;;;;;;;;;5.50;99.90;;;;;;5030519;28;19941;-57
2023/12/08 06:25:25;;;;;;;;;;;5.60;99.90;;;;;;5030094;28;19948;-57
2023/12/08 06:27:53;;;;;;;;;;;5.70;99.90;;;;;;5029346;28;19936;-57
2023/12/08 06:30:21;;;;;;;;;;;5.70;99.90;;;;;;5028216;28;19936;-56
2023/12/08 06:32:49;;;;;;;;;;;5.80;99.90;;;;;;5031243;28;19944;-56
2023/12/08 06:35:17;;;;;;;;;;;5.80;99.90;;;;;;5007195;28;19932;-56
2023/12/08 06:37:45;;;;;;;;;;;6.10;99.90;;;;;;5012782;28;19929;-56
2023/12/08 06:40:13;;;;;;;;;;;5.90;99.90;;;;;;5029167;28;19944;-56
2023/12/08 06:42:40;;;;;;;;;;;5.90;99.90;;;;;;5029406;28;19997;-56
2023/12/08 06:45:08;;;;;;;;;;;5.90;99.90;;;;;;5029680;28;19925;-57
2023/12/08 06:47:36;;;;;;;;;;;5.90;99.90;;;;;;5032295;28;19929;-57
2023/12/08 06:50:05;;;;;;;;;;;5.80;99.90;;;;;;5028529;28;19925;-56
2023/12/08 06:52:33;;;;;;;;;;;5.90;99.90;;;;;;5029568;28;19936;-56
2023/12/08 06:55:01;;;;;;;;;;;5.90;99.90;;;;;;5029567;28;19925;-57
2023/12/08 06:57:30;;;;;;;;;;;5.80;99.90;;;;;;5022630;28;19937;-56
2023/12/08 06:59:57;;;;;;;;;;;5.90;99.90;;;;;;5022457;28;19948;-57
2023/12/08 07:02:28;;;;;;;;;;;5.80;99.90;;;;;;5035485;28;19940;-58
2023/12/08 07:04:56;;;;;;;;;;;5.80;99.90;;;;;;5008718;28;20389;-56
2023/12/08 07:07:24;;;;;;;;;;;5.80;99.90;;;;;;5020498;28;20374;-56
2023/12/08 07:09:52;;;;;;;;;;;5.90;99.90;;;;;;5025804;28;19929;-56
2023/12/08 07:12:20;;;;;;;;;;;5.80;99.90;;;;;;5014453;28;19925;-55
2023/12/08 07:14:50;;;;;;;;;;;5.90;99.90;;;;;;5029342;28;19925;-56
2023/12/08 07:17:19;;;;;;;;;;;6.00;99.90;;;;;;5028654;28;20266;-56
2023/12/08 07:19:46;;;;;;;;;;;6.00;99.90;;;;;;5012829;28;19932;-56
2023/12/08 07:22:15;;;;;;;;;;;6.00;99.90;;;;;;5014527;28;19925;-56
2023/12/08 07:24:43;;;;;;;;;;;6.00;99.90;;;;;;5028413;28;19933;-56
2023/12/08 07:27:10;;;;;;;;;;;6.00;99.90;;;;;;5027787;28;20365;-55
2023/12/08 07:29:39;;;;;;;;;;;6.00;99.90;;;;;;5028762;28;19928;-55
2023/12/08 07:32:07;;;;;;;;;;;6.00;99.90;;;;;;5031525;28;19940;-55
2023/12/08 07:34:35;;;;;;;;;;;6.00;99.90;;;;;;5027532;28;19933;-55
2023/12/08 07:37:06;;;;;;;;;;;6.00;99.90;;;;;;5028588;28;19932;-55
2023/12/08 07:39:34;;;;;;;;;;;6.00;99.90;;;;;;5028013;28;19925;-55
2023/12/08 07:42:02;;;;;;;;;;;5.90;99.90;;;;;;5030459;28;20369;-55
2023/12/08 07:44:30;;;;;;;;;;;5.90;99.90;;;;;;5048729;28;20289;-56
2023/12/08 07:46:58;;;;;;;;;;;5.90;99.90;;;;;;5037557;28;19933;-56
2023/12/08 07:49:27;;;;;;;;;;;5.90;99.90;;;;;;5021353;28;19952;-55
2023/12/08 07:51:55;;;;;;;;;;;5.80;99.90;;;;;;5024789;28;20385;-55
2023/12/08 07:54:24;;;;;;;;;;;5.80;99.90;;;;;;5028597;28;20336;-56
2023/12/08 07:56:51;;;;;;;;;;;5.70;99.90;;;;;;5026585;28;19926;-56
2023/12/08 07:59:19;;;;;;;;;;;5.60;99.90;;;;;;5025084;28;19925;-55
2023/12/08 08:01:47;;;;;;;;;;;5.60;99.90;;;;;;5029817;28;19932;-55
2023/12/08 08:04:15;;;;;;;;;;;5.60;99.90;;;;;;5030095;28;20302;-56
2023/12/08 08:06:42;;;;;;;;;;;5.50;99.90;;;;;;5007636;28;19929;-55
2023/12/08 08:09:11;;;;;;;;;;;5.50;99.90;;;;;;5026840;28;19933;-55
2023/12/08 08:11:39;;;;;;;;;;;5.50;99.90;;;;;;5028556;28;19929;-55
2023/12/08 08:14:07;;;;;;;;;;;5.50;99.90;;;;;;5028073;28;19933;-56
2023/12/08 08:16:34;;;;;;;;;;;5.50;99.90;;;;;;5028340;28;19925;-55
2023/12/08 08:19:02;;;;;;;;;;;5.40;99.90;;;;;;5021130;28;19929;-55
2023/12/08 08:21:30;;;;;;;;;;;5.50;99.90;;;;;;5008816;28;19926;-55
2023/12/08 08:23:58;;;;;;;;;;;5.50;99.90;;;;;;5026581;28;19933;-55
2023/12/08 08:26:26;;;;;;;;;;;5.60;99.90;;;;;;5026951;28;19936;-55
2023/12/08 08:28:54;;;;;;;;;;;5.70;99.90;;;;;;5029021;28;19933;-55
2023/12/08 08:31:22;;;;;;;;;;;5.70;99.90;;;;;;5027827;28;19925;-55
2023/12/08 08:33:50;;;;;;;;;;;5.70;99.90;;;;;;5024672;28;19931;-55
2023/12/08 08:36:18;;;;;;;;;;;5.70;99.90;;;;;;5020247;28;19941;-55
2023/12/08 08:38:47;;;;;;;;;;;5.70;99.90;;;;;;5027472;28;20381;-55
2023/12/08 08:41:14;;;;;;;;;;;5.60;99.90;;;;;;5011897;28;20154;-55
2023/12/08 08:43:42;;;;;;;;;;;5.60;99.90;;;;;;5026573;28;19940;-55
2023/12/08 08:46:10;;;;;;;;;;;5.60;99.90;;;;;;5027752;28;20476;-55
2023/12/08 08:48:38;;;;;;;;;;;5.50;99.90;;;;;;5026029;28;20297;-56
2023/12/08 08:51:06;;;;;;;;;;;5.50;99.90;;;;;;5010551;28;20507;-56
2023/12/08 08:53:35;;;;;;;;;;;5.50;99.90;;;;;;5025974;28;19925;-56
2023/12/08 08:56:03;;;;;;;;;;;5.60;99.90;;;;;;5026177;28;19940;-55
2023/12/08 08:58:32;;;;;;;;;;;5.60;99.90;;;;;;5024587;28;20205;-55
2023/12/08 09:01:00;;;;;;;;;;;5.70;99.90;;;;;;5027853;28;19925;-55
2023/12/08 09:03:28;;;;;;;;;;;5.70;99.90;;;;;;5032736;28;20411;-59
2023/12/08 09:05:55;;;;;;;;;;;5.80;99.90;;;;;;5013003;28;19933;-57
2023/12/08 09:08:24;;;;;;;;;;;5.80;99.90;;;;;;5035034;28;19935;-58
2023/12/08 09:10:52;;;;;;;;;;;5.90;99.90;;;;;;5044362;28;20309;-55
2023/12/08 09:13:21;;;;;;;;;;;6.00;99.90;;;;;;5029873;28;19932;-55
2023/12/08 09:15:51;;;;;;;;;;;6.00;99.90;;;;;;5029494;28;19926;-55
2023/12/08 09:18:18;;;;;;;;;;;6.00;99.90;;;;;;5026608;28;19925;-55
2023/12/08 09:20:46;;;;;;;;;;;6.10;99.90;;;;;;5022799;28;19941;-55
2023/12/08 09:23:14;;;;;;;;;;;6.20;99.90;;;;;;5026562;28;19929;-57
2023/12/08 09:25:41;;;;;;;;;;;6.20;99.90;;;;;;5026114;28;19992;-55
2023/12/08 09:28:09;;;;;;;;;;;6.30;99.90;;;;;;5025562;28;19925;-56
2023/12/08 09:30:37;;;;;;;;;;;6.30;99.90;;;;;;5029497;28;19926;-56
2023/12/08 09:33:04;;;;;;;;;;;6.30;99.90;;;;;;5030829;28;20262;-57
2023/12/08 09:35:33;;;;;;;;;;;6.30;99.90;;;;;;5032192;28;20296;-55
2023/12/08 09:38:03;;;;;;;;;;;6.30;99.90;;;;;;5043057;28;19932;-55
2023/12/08 09:40:32;;;;;;;;;;;6.40;99.90;;;;;;5026354;28;19932;-55
2023/12/08 09:43:14;;;;;;;;;;;6.50;99.90;;;;;;5027512;28;19932;-55
2023/12/08 09:45:44;;;;;;;;;;;6.50;99.90;;;;;;5030759;28;19925;-55
2023/12/08 09:48:12;;;;;;;;;;;6.60;99.90;;;;;;5030470;28;19936;-55
2023/12/08 09:50:40;;;;;;;;;;;6.60;99.90;;;;;;5017575;28;19925;-55
2023/12/08 09:53:08;;;;;;;;;;;6.70;99.90;;;;;;5021862;28;19925;-57
2023/12/08 09:55:37;;;;;;;;;;;6.70;99.90;;;;;;5029130;28;20293;-57
2023/12/08 09:58:06;;;;;;;;;;;6.80;99.90;;;;;;5029129;28;19932;-55
2023/12/08 10:00:35;;;;;;;;;;;6.80;99.90;;;;;;5030029;28;19925;-55
2023/12/08 10:03:03;;;;;;;;;;;6.90;99.90;;;;;;5035074;28;20071;-55
2023/12/08 10:05:30;;;;;;;;;;;6.90;99.90;;;;;;5019587;28;20585;-55
2023/12/08 10:07:59;;;;;;;;;;;6.90;99.90;;;;;;5016562;28;19926;-55
2023/12/08 10:10:27;;;;;;;;;;;7.00;99.90;;;;;;5029734;28;20377;-55
2023/12/08 10:12:55;;;;;;;;;;;7.00;99.90;;;;;;5030064;28;20309;-55
2023/12/08 10:15:23;;;;;;;;;;;7.10;99.90;;;;;;5029375;28;20397;-55
2023/12/08 10:17:51;;;;;;;;;;;7.10;99.90;;;;;;5029727;28;19948;-56
2023/12/08 10:20:21;;;;;;;;;;;7.10;99.90;;;;;;5019918;28;19929;-56
2023/12/08 10:22:50;;;;;;;;;;;7.10;99.90;;;;;;5029092;28;20218;-56
2023/12/08 10:25:18;;;;;;;;;;;7.10;99.90;;;;;;5030098;28;20313;-56
2023/12/08 10:27:47;;;;;;;;;;;7.10;99.90;;;;;;5029905;28;19932;-55
2023/12/08 10:30:16;;;;;;;;;;;7.10;99.90;;;;;;5028518;28;19925;-55
2023/12/08 10:32:44;;;;;;;;;;;7.10;99.90;;;;;;5034539;28;20278;-56
2023/12/08 10:35:13;;;;;;;;;;;7.10;99.90;;;;;;5023709;28;20374;-57
2023/12/08 10:37:42;;;;;;;;;;;7.10;99.90;;;;;;5017737;28;19925;-55
2023/12/08 10:40:13;;;;;;;;;;;7.20;99.90;;;;;;5031938;28;20373;-56
2023/12/08 10:42:43;;;;;;;;;;;7.20;99.90;;;;;;5026860;28;19932;-55
2023/12/08 10:45:11;;;;;;;;;;;7.30;99.90;;;;;;5023798;28;19933;-54
2023/12/08 10:47:40;;;;;;;;;;;7.20;99.90;;;;;;5027119;28;19932;-55
2023/12/08 10:50:11;;;;;;;;;;;7.30;99.90;;;;;;5023805;28;19933;-55
2023/12/08 10:52:40;;;;;;;;;;;7.30;99.90;;;;;;5026658;28;19929;-55
2023/12/08 10:55:10;;;;;;;;;;;7.30;99.90;;;;;;5029077;28;19925;-55
2023/12/08 10:57:38;;;;;;;;;;;7.40;99.90;;;;;;5024042;28;19925;-54
2023/12/08 11:00:17;;;;;;;;;;;7.40;99.90;;;;;;5027319;28;19925;-54
2023/12/08 11:02:47;;;;;;;;;;;7.40;99.90;;;;;;5041286;28;19929;-55
2023/12/08 11:05:18;;;;;;;;;;;7.40;99.90;;;;;;5030954;28;19973;-55
2023/12/08 11:07:47;;;;;;;;;;;7.40;99.90;;;;;;5032499;28;19934;-54
2023/12/08 11:10:15;;;;;;;;;;;7.40;99.90;;;;;;5031613;28;19925;-55
2023/12/08 11:12:49;;;;;;;;;;;7.40;99.90;;;;;;5028899;28;20287;-55
2023/12/08 11:15:18;;;;;;;;;;;7.50;99.90;;;;;;5027708;28;19936;-53
2023/12/08 11:18:04;;;;;;;;;;;7.50;99.90;;;;;;5028577;28;19925;-54
2023/12/08 11:20:33;;;;;;;;;;;7.50;99.90;;;;;;5021961;28;20389;-55
2023/12/08 11:23:01;;;;;;;;;;;7.50;99.90;;;;;;5000902;28;19925;-54
2023/12/08 11:25:37;;;;;;;;;;;7.60;99.90;;;;;;5018215;28;19932;-54
2023/12/08 11:28:26;;;;;;;;;;;7.60;99.90;;;;;;5022495;28;19928;-55
2023/12/08 11:30:57;;;;;;;;;;;7.60;99.90;;;;;;5009752;28;19929;-54
2023/12/08 11:33:43;;;;;;;;;;;7.60;99.90;;;;;;5031915;28;19929;-54
2023/12/08 11:36:14;;;;;;;;;;;7.60;99.90;;;;;;5018351;28;19925;-54
2023/12/08 11:38:41;;;;;;;;;;;7.70;99.90;;;;;;5030752;28;19933;-54
2023/12/08 11:41:10;;;;;;;;;;;7.70;99.90;;;;;;5028180;28;19925;-54
2023/12/08 11:43:41;;;;;;;;;;;7.80;99.90;;;;;;5028419;28;19925;-55
2023/12/08 11:46:09;;;;;;;;;;;7.80;99.90;;;;;;5028531;28;19932;-54
2023/12/08 11:48:37;;;;;;;;;;;7.90;99.90;;;;;;5027568;28;19925;-54
2023/12/08 11:51:07;;;;;;;;;;;7.90;99.90;;;;;;5019037;28;19926;-55
2023/12/08 11:53:55;;;;;;;;;;;7.90;99.90;;;;;;5022263;28;19929;-54
2023/12/08 11:56:36;;;;;;;;;;;7.90;99.90;;;;;;5028535;28;19932;-55
2023/12/08 11:59:04;;;;;;;;;;;8.00;99.90;;;;;;5034492;28;20404;-54
2023/12/08 12:01:31;;;;;;;;;;;8.00;99.90;;;;;;5030553;28;20444;-54
2023/12/08 12:03:59;;;;;;;;;;;8.00;99.90;;;;;;5027944;28;19933;-54
2023/12/08 12:06:28;;;;;;;;;;;8.00;99.90;;;;;;5027539;28;19932;-55
2023/12/08 12:08:57;;;;;;;;;;;8.00;99.90;;;;;;5026713;28;19948;-55
2023/12/08 12:11:26;;;;;;;;;;;8.00;99.90;;;;;;5027072;28;19936;-54
2023/12/08 12:14:04;;;;;;;;;;;8.00;99.90;;;;;;5026797;28;19925;-54
2023/12/08 12:16:32;;;;;;;;;;;8.10;99.90;;;;;;5021208;28;19930;-54
2023/12/08 12:19:00;;;;;;;;;;;8.10;99.90;;;;;;5028134;28;19936;-54
2023/12/08 12:21:28;;;;;;;;;;;8.10;99.90;;;;;;5018726;28;20305;-55
2023/12/08 12:23:55;;;;;;;;;;;8.10;99.90;;;;;;5024748;28;19932;-55
2023/12/08 12:26:23;;;;;;;;;;;8.20;99.90;;;;;;5028323;28;20278;-60
2023/12/08 12:28:51;;;;;;;;;;;8.20;99.90;;;;;;5023357;28;19932;-54
2023/12/08 12:31:19;;;;;;;;;;;8.20;99.90;;;;;;5020139;28;19925;-55
2023/12/08 12:33:46;;;;;;;;;;;8.20;99.90;;;;;;5032105;28;20254;-55
2023/12/08 12:36:17;;;;;;;;;;;8.20;99.90;;;;;;5013578;28;20009;-55
2023/12/08 12:38:46;;;;;;;;;;;8.30;99.90;;;;;;5035824;28;19925;-55
2023/12/08 12:41:24;;;;;;;;;;;8.20;99.90;;;;;;5031924;28;19936;-55
2023/12/08 12:43:58;;;;;;;;;;;8.30;99.90;;;;;;5047437;28;20297;-54
2023/12/08 12:46:26;;;;;;;;;;;8.20;99.90;;;;;;5050762;28;19932;-55
2023/12/08 12:48:54;;;;;;;;;;;8.30;99.90;;;;;;5051418;28;20369;-55
2023/12/08 12:51:35;;;;;;;;;;;8.30;99.90;;;;;;5038158;28;19925;-55
2023/12/08 12:54:04;;;;;;;;;;;8.30;99.90;;;;;;5030348;28;19925;-54
2023/12/08 12:56:32;;;;;;;;;;;8.30;99.90;;;;;;5031601;28;19925;-54
2023/12/08 12:59:04;;;;;;;;;;;8.30;99.90;;;;;;5038859;28;20453;-54
2023/12/08 13:01:32;;;;;;;;;;;8.30;99.90;;;;;;5034070;28;20380;-54
2023/12/08 13:04:00;;;;;;;;;;;8.30;99.90;;;;;;5033849;28;19925;-55
2023/12/08 13:06:29;;;;;;;;;;;8.30;99.90;;;;;;5026625;28;19925;-55
2023/12/08 13:09:01;;;;;;;;;;;8.30;99.90;;;;;;5024962;28;19925;-55
2023/12/08 13:11:29;;;;;;;;;;;8.40;99.90;;;;;;5031666;28;19936;-55
2023/12/08 13:13:57;;;;;;;;;;;8.40;99.90;;;;;;5031419;28;20415;-55
2023/12/08 13:16:25;;;;;;;;;;;8.40;99.90;;;;;;5031706;28;19936;-57
2023/12/08 13:18:52;;;;;;;;;;;8.30;99.90;;;;;;5030081;28;19929;-55
2023/12/08 13:21:20;;;;;;;;;;;8.40;99.90;;;;;;5030121;28;19925;-54
2023/12/08 13:23:48;;;;;;;;;;;8.40;99.90;;;;;;5042360;28;19933;-54
2023/12/08 13:26:16;;;;;;;;;;;8.40;99.90;;;;;;5031174;28;19929;-54
2023/12/08 13:28:44;;;;;;;;;;;8.40;99.90;;;;;;5030565;28;19928;-56
2023/12/08 13:31:12;;;;;;;;;;;8.40;99.90;;;;;;5012591;28;19971;-54
2023/12/08 13:33:40;;;;;;;;;;;8.30;99.90;;;;;;5032486;28;19925;-54
2023/12/08 13:36:08;;;;;;;;;;;8.30;99.90;;;;;;5029748;28;19932;-54
2023/12/08 13:38:37;;;;;;;;;;;8.30;99.90;;;;;;5021339;28;19958;-54
2023/12/08 13:41:04;;;;;;;;;;;8.20;99.90;;;;;;5030558;28;19925;-54
2023/12/08 13:43:32;;;;;;;;;;;8.20;99.90;;;;;;5030599;28;19947;-54
2023/12/08 13:46:00;;;;;;;;;;;8.10;99.90;;;;;;5030508;28;19932;-54
2023/12/08 13:48:28;;;;;;;;;;;8.10;99.90;;;;;;5037900;28;19925;-54
2023/12/08 13:50:56;;;;;;;;;;;8.10;99.90;;;;;;5050643;28;19936;-55
2023/12/08 13:53:44;;;;;;;;;;;8.10;99.90;;;;;;5026655;28;19929;-55
2023/12/08 13:56:13;;;;;;;;;;;8.10;99.90;;;;;;5030834;28;19925;-54
2023/12/08 13:58:40;;;;;;;;;;;8.10;99.90;;;;;;5030465;28;20412;-54
2023/12/08 14:01:08;;;;;;;;;;;8.10;99.90;;;;;;5030033;28;19925;-54
2023/12/08 14:03:36;;;;;;;;;;;8.00;99.90;;;;;;5029562;28;19929;-54
2023/12/08 14:06:06;;;;;;;;;;;8.00;99.90;;;;;;5029470;28;19925;-55
2023/12/08 14:08:33;;;;;;;;;;;8.00;99.90;;;;;;5046101;28;19925;-54
2023/12/08 14:11:01;;;;;;;;;;;8.00;99.90;;;;;;5049290;28;19924;-54
2023/12/08 14:13:29;;;;;;;;;;;8.00;99.90;;;;;;5036705;28;19932;-56
2023/12/08 14:15:58;;;;;;;;;;;8.00;99.90;;;;;;5030025;28;19925;-56
2023/12/08 14:18:26;;;;;;;;;;;8.00;99.90;;;;;;5030109;28;19932;-56
2023/12/08 14:20:54;;;;;;;;;;;8.00;99.90;;;;;;5028850;28;19929;-55
2023/12/08 14:23:22;;;;;;;;;;;8.00;99.90;;;;;;5039368;28;19925;-55
2023/12/08 14:25:50;;;;;;;;;;;8.00;99.90;;;;;;5049062;28;19925;-56
2023/12/08 14:28:18;;;;;;;;;;;8.00;99.90;;;;;;5041984;28;19929;-56
2023/12/08 14:30:45;;;;;;;;;;;8.00;99.90;;;;;;5030104;28;19925;-56
2023/12/08 14:33:14;;;;;;;;;;;8.00;99.90;;;;;;5027648;28;19925;-56
2023/12/08 14:35:42;;;;;;;;;;;8.00;99.90;;;;;;5029894;28;19940;-56
2023/12/08 14:38:13;;;;;;;;;;;8.00;99.90;;;;;;5026579;28;19932;-57
2023/12/08 14:40:41;;;;;;;;;;;8.00;99.90;;;;;;5029010;28;19925;-56